createdAt,value
2022-12-23T00:00:23.157Z,995.62
2022-12-23T00:01:23.123Z,995.68
2022-12-23T00:02:23.159Z,995.67
2022-12-23T00:03:23.174Z,995.69
2022-12-23T00:04:23.160Z,995.69
2022-12-23T00:05:22.981Z,995.67
2022-12-23T00:06:22.944Z,995.70
2022-12-23T00:07:22.905Z,995.70
2022-12-23T00:08:22.860Z,995.69
2022-12-23T00:09:22.834Z,995.71
2022-12-23T00:10:22.793Z,995.70
2022-12-23T00:11:22.764Z,995.72
2022-12-23T00:12:22.720Z,995.71
2022-12-23T00:13:22.688Z,995.72
2022-12-23T00:14:22.650Z,995.73
2022-12-23T00:15:22.620Z,995.74
2022-12-23T00:16:22.615Z,995.73
2022-12-23T00:17:23.325Z,995.69
2022-12-23T00:18:22.508Z,995.67
2022-12-23T00:19:22.474Z,995.69
2022-12-23T00:20:22.437Z,995.73
2022-12-23T00:21:22.403Z,995.75
2022-12-23T00:22:22.366Z,995.76
2022-12-23T00:23:22.341Z,995.75
2022-12-23T00:24:22.291Z,995.74
2022-12-23T00:25:22.252Z,995.75
2022-12-23T00:26:22.243Z,995.79
2022-12-23T00:27:22.193Z,995.84
2022-12-23T00:28:22.153Z,995.86
2022-12-23T00:29:22.118Z,995.84
2022-12-23T00:30:22.080Z,995.87
2022-12-23T00:31:22.077Z,995.89
2022-12-23T00:32:21.998Z,995.88
2022-12-23T00:33:21.970Z,995.90
2022-12-23T00:34:21.940Z,995.91
2022-12-23T00:35:21.898Z,995.93
2022-12-23T00:36:21.919Z,995.96
2022-12-23T00:37:21.824Z,995.94
2022-12-23T00:38:21.804Z,995.93
2022-12-23T00:39:21.752Z,995.95
2022-12-23T00:40:21.720Z,995.93
2022-12-23T00:41:21.701Z,995.89
2022-12-23T00:42:21.653Z,995.89
2022-12-23T00:43:21.611Z,995.89
2022-12-23T00:44:21.581Z,995.92
2022-12-23T00:45:21.547Z,995.93
2022-12-23T00:46:21.585Z,995.94
2022-12-23T00:47:21.468Z,995.93
2022-12-23T00:48:21.438Z,995.89
2022-12-23T00:49:21.396Z,995.81
2022-12-23T00:50:21.362Z,995.84
2022-12-23T00:51:21.329Z,995.85
2022-12-23T00:52:21.301Z,995.86
2022-12-23T00:53:21.252Z,995.85
2022-12-23T00:54:21.246Z,995.84
2022-12-23T00:55:21.191Z,995.91
2022-12-23T00:56:21.157Z,995.92
2022-12-23T00:57:21.113Z,995.95
2022-12-23T00:58:21.074Z,995.94
2022-12-23T00:59:21.039Z,995.98
2022-12-23T01:00:21.001Z,995.99
2022-12-23T01:01:21.178Z,996.01
2022-12-23T01:02:21.067Z,996.01
2022-12-23T01:03:20.981Z,996.00
2022-12-23T01:04:20.858Z,996.00
2022-12-23T01:05:20.859Z,996.02
2022-12-23T01:06:20.787Z,996.09
2022-12-23T01:07:20.745Z,996.05
2022-12-23T01:08:20.716Z,996.10
2022-12-23T01:09:20.683Z,996.13
2022-12-23T01:10:20.644Z,996.09
2022-12-23T01:11:20.610Z,996.09
2022-12-23T01:12:20.580Z,996.12
2022-12-23T01:13:20.534Z,996.10
2022-12-23T01:14:20.496Z,996.16
2022-12-23T01:15:20.458Z,996.14
2022-12-23T01:16:20.498Z,996.14
2022-12-23T01:17:20.480Z,996.21
2022-12-23T01:18:20.377Z,996.19
2022-12-23T01:19:20.330Z,996.24
2022-12-23T01:20:20.289Z,996.26
2022-12-23T01:21:20.243Z,996.24
2022-12-23T01:22:20.207Z,996.26
2022-12-23T01:23:20.173Z,996.31
2022-12-23T01:24:20.138Z,996.31
2022-12-23T01:25:20.105Z,996.31
2022-12-23T01:26:20.074Z,996.25
2022-12-23T01:27:20.037Z,996.27
2022-12-23T01:28:19.992Z,996.25
2022-12-23T01:29:19.955Z,996.31
2022-12-23T01:30:19.933Z,996.26
2022-12-23T01:31:19.923Z,996.32
2022-12-23T01:32:19.944Z,996.33
2022-12-23T01:33:19.821Z,996.32
2022-12-23T01:34:19.788Z,996.33
2022-12-23T01:35:19.736Z,996.35
2022-12-23T01:36:19.701Z,996.35
2022-12-23T01:37:19.668Z,996.39
2022-12-23T01:38:19.629Z,996.40
2022-12-23T01:39:19.599Z,996.43
2022-12-23T01:40:19.564Z,996.49
2022-12-23T01:41:19.541Z,996.49
2022-12-23T01:42:19.497Z,996.53
2022-12-23T01:43:19.456Z,996.57
2022-12-23T01:44:19.415Z,996.58
2022-12-23T01:45:19.379Z,996.57
2022-12-23T01:46:19.464Z,996.64
2022-12-23T01:47:19.306Z,996.61
2022-12-23T01:48:19.270Z,996.61
2022-12-23T01:49:19.247Z,996.62
2022-12-23T01:50:19.198Z,996.65
2022-12-23T01:51:19.159Z,996.64
2022-12-23T01:52:19.127Z,996.62
2022-12-23T01:53:19.083Z,996.63
2022-12-23T01:54:19.058Z,996.63
2022-12-23T01:55:19.024Z,996.60
2022-12-23T01:56:18.984Z,996.60
2022-12-23T01:57:18.989Z,996.62
2022-12-23T01:58:18.909Z,996.62
2022-12-23T01:59:18.870Z,996.58
2022-12-23T02:00:18.853Z,996.60
2022-12-23T02:01:18.826Z,996.55
2022-12-23T02:02:19.069Z,996.58
2022-12-23T02:03:18.748Z,996.58
2022-12-23T02:04:18.685Z,996.54
2022-12-23T02:05:18.656Z,996.59
2022-12-23T02:06:18.610Z,996.60
2022-12-23T02:07:18.576Z,996.62
2022-12-23T02:08:18.541Z,996.65
2022-12-23T02:09:18.515Z,996.64
2022-12-23T02:10:18.473Z,996.67
2022-12-23T02:11:18.435Z,996.64
2022-12-23T02:12:18.411Z,996.60
2022-12-23T02:13:18.355Z,996.60
2022-12-23T02:14:18.324Z,996.63
2022-12-23T02:15:18.290Z,996.64
2022-12-23T02:16:18.364Z,996.61
2022-12-23T02:17:18.306Z,996.62
2022-12-23T02:18:18.180Z,996.61
2022-12-23T02:19:18.138Z,996.66
2022-12-23T02:20:18.107Z,996.66
2022-12-23T02:21:18.067Z,996.64
2022-12-23T02:22:18.036Z,996.66
2022-12-23T02:23:18.001Z,996.65
2022-12-23T02:24:17.958Z,996.74
2022-12-23T02:25:17.935Z,996.75
2022-12-23T02:26:17.886Z,996.78
2022-12-23T02:27:17.859Z,996.82
2022-12-23T02:28:17.817Z,996.83
2022-12-23T02:29:17.778Z,996.90
2022-12-23T02:30:17.751Z,996.87
2022-12-23T02:31:17.748Z,996.88
2022-12-23T02:32:17.675Z,996.93
2022-12-23T02:33:17.654Z,996.86
2022-12-23T02:34:17.602Z,996.90
2022-12-23T02:35:17.579Z,996.88
2022-12-23T02:36:17.521Z,996.93
2022-12-23T02:37:17.490Z,996.92
2022-12-23T02:38:17.451Z,996.95
2022-12-23T02:39:17.416Z,996.96
2022-12-23T02:40:17.385Z,996.95
2022-12-23T02:41:17.344Z,996.93
2022-12-23T02:42:17.304Z,996.95
2022-12-23T02:43:17.270Z,996.95
2022-12-23T02:44:17.243Z,996.95
2022-12-23T02:45:17.210Z,996.94
2022-12-23T02:46:17.226Z,997.00
2022-12-23T02:47:17.136Z,997.02
2022-12-23T02:48:17.114Z,996.95
2022-12-23T02:49:17.055Z,996.99
2022-12-23T02:50:17.028Z,997.00
2022-12-23T02:51:16.982Z,997.00
2022-12-23T02:52:16.953Z,996.99
2022-12-23T02:53:16.983Z,996.97
2022-12-23T02:54:16.890Z,996.96
2022-12-23T02:55:16.837Z,996.96
2022-12-23T02:56:16.811Z,996.90
2022-12-23T02:57:16.772Z,996.95
2022-12-23T02:58:16.742Z,996.89
2022-12-23T02:59:16.706Z,996.99
2022-12-23T03:00:16.657Z,997.03
2022-12-23T03:01:16.670Z,997.06
2022-12-23T03:02:16.804Z,997.08
2022-12-23T03:03:16.725Z,997.09
2022-12-23T03:04:16.518Z,997.18
2022-12-23T03:05:16.485Z,997.22
2022-12-23T03:06:16.443Z,997.34
2022-12-23T03:07:18.656Z,997.29
2022-12-23T03:08:16.361Z,997.39
2022-12-23T03:09:16.332Z,997.46
2022-12-23T03:10:16.308Z,997.41
2022-12-23T03:11:16.259Z,997.43
2022-12-23T03:12:16.236Z,997.50
2022-12-23T03:13:16.192Z,997.46
2022-12-23T03:14:16.162Z,997.53
2022-12-23T03:15:16.122Z,997.52
2022-12-23T03:16:16.160Z,997.50
2022-12-23T03:17:16.043Z,997.51
2022-12-23T03:18:16.014Z,997.45
2022-12-23T03:19:15.964Z,997.41
2022-12-23T03:20:15.936Z,997.38
2022-12-23T03:21:15.935Z,997.42
2022-12-23T03:22:15.866Z,997.48
2022-12-23T03:23:15.827Z,997.55
2022-12-23T03:24:15.803Z,997.48
2022-12-23T03:25:15.755Z,997.48
2022-12-23T03:26:15.751Z,997.50
2022-12-23T03:27:15.685Z,997.46
2022-12-23T03:28:15.641Z,997.45
2022-12-23T03:29:15.611Z,997.51
2022-12-23T03:30:15.572Z,997.57
2022-12-23T03:31:15.599Z,997.51
2022-12-23T03:32:15.551Z,997.53
2022-12-23T03:33:15.471Z,997.52
2022-12-23T03:34:15.425Z,997.54
2022-12-23T03:35:15.392Z,997.56
2022-12-23T03:36:15.362Z,997.60
2022-12-23T03:37:15.319Z,997.59
2022-12-23T03:38:15.279Z,997.59
2022-12-23T03:39:15.247Z,997.55
2022-12-23T03:40:15.231Z,997.55
2022-12-23T03:41:15.178Z,997.58
2022-12-23T03:42:15.137Z,997.57
2022-12-23T03:43:15.105Z,997.61
2022-12-23T03:44:15.072Z,997.63
2022-12-23T03:45:41.716Z,997.58
2022-12-23T03:46:15.065Z,997.56
2022-12-23T03:47:14.957Z,997.58
2022-12-23T03:48:14.947Z,997.58
2022-12-23T03:49:14.893Z,997.59
2022-12-23T03:50:14.854Z,997.64
2022-12-23T03:51:14.835Z,997.61
2022-12-23T03:52:21.039Z,997.60
2022-12-23T03:53:14.746Z,997.59
2022-12-23T03:54:14.700Z,997.62
2022-12-23T03:55:14.671Z,997.56
2022-12-23T03:56:14.630Z,997.54
2022-12-23T03:57:14.610Z,997.55
2022-12-23T03:58:14.579Z,997.55
2022-12-23T03:59:14.553Z,997.47
2022-12-23T04:00:14.485Z,997.56
2022-12-23T04:01:14.603Z,997.59
2022-12-23T04:02:14.511Z,997.50
2022-12-23T04:03:14.373Z,997.55
2022-12-23T04:04:14.402Z,997.53
2022-12-23T04:05:14.307Z,997.52
2022-12-23T04:06:14.274Z,997.51
2022-12-23T04:07:14.237Z,997.45
2022-12-23T04:08:14.215Z,997.42
2022-12-23T04:09:19.825Z,997.38
2022-12-23T04:10:14.128Z,997.41
2022-12-23T04:11:14.097Z,997.37
2022-12-23T04:12:14.056Z,997.39
2022-12-23T04:13:14.050Z,997.35
2022-12-23T04:14:13.978Z,997.35
2022-12-23T04:15:13.947Z,997.33
2022-12-23T04:16:13.973Z,997.33
2022-12-23T04:17:13.879Z,997.33
2022-12-23T04:18:13.836Z,997.29
2022-12-23T04:19:13.799Z,997.29
2022-12-23T04:20:13.777Z,997.32
2022-12-23T04:21:13.739Z,997.35
2022-12-23T04:22:13.690Z,997.32
2022-12-23T04:23:13.664Z,997.38
2022-12-23T04:24:13.616Z,997.34
2022-12-23T04:25:13.583Z,997.36
2022-12-23T04:26:13.546Z,997.37
2022-12-23T04:27:13.525Z,997.35
2022-12-23T04:28:13.475Z,997.38
2022-12-23T04:29:13.531Z,997.39
2022-12-23T04:30:13.452Z,997.40
2022-12-23T04:31:13.412Z,997.43
2022-12-23T04:32:13.359Z,997.37
2022-12-23T04:33:13.297Z,997.39
2022-12-23T04:34:13.255Z,997.37
2022-12-23T04:35:13.215Z,997.48
2022-12-23T04:36:13.187Z,997.48
2022-12-23T04:37:13.144Z,997.48
2022-12-23T04:38:13.110Z,997.52
2022-12-23T04:39:13.080Z,997.52
2022-12-23T04:40:13.036Z,997.52
2022-12-23T04:41:13.004Z,997.60
2022-12-23T04:42:12.964Z,997.60
2022-12-23T04:43:12.925Z,997.60
2022-12-23T04:44:12.888Z,997.57
2022-12-23T04:45:12.854Z,997.61
2022-12-23T04:46:12.871Z,997.59
2022-12-23T04:47:12.794Z,997.50
2022-12-23T04:48:12.765Z,997.53
2022-12-23T04:49:12.708Z,997.52
2022-12-23T04:50:12.674Z,997.54
2022-12-23T04:51:12.638Z,997.51
2022-12-23T04:52:12.598Z,997.48
2022-12-23T04:53:12.567Z,997.51
2022-12-23T04:54:12.530Z,997.53
2022-12-23T04:55:12.490Z,997.53
2022-12-23T04:56:12.451Z,997.54
2022-12-23T04:57:12.422Z,997.56
2022-12-23T04:58:12.384Z,997.59
2022-12-23T04:59:12.342Z,997.58
2022-12-23T05:00:12.312Z,997.61
2022-12-23T05:01:12.318Z,997.60
2022-12-23T05:02:12.538Z,997.60
2022-12-23T05:03:12.403Z,997.58
2022-12-23T05:04:12.184Z,997.65
2022-12-23T05:05:12.125Z,997.59
2022-12-23T05:06:12.094Z,997.61
2022-12-23T05:07:12.054Z,997.56
2022-12-23T05:08:12.017Z,997.59
2022-12-23T05:09:11.985Z,997.59
2022-12-23T05:10:11.950Z,997.59
2022-12-23T05:11:11.911Z,997.58
2022-12-23T05:12:11.873Z,997.56
2022-12-23T05:13:11.837Z,997.59
2022-12-23T05:14:11.802Z,997.59
2022-12-23T05:15:11.763Z,997.58
2022-12-23T05:16:11.805Z,997.58
2022-12-23T05:17:11.689Z,997.64
2022-12-23T05:18:11.670Z,997.66
2022-12-23T05:19:11.621Z,997.59
2022-12-23T05:20:11.588Z,997.61
2022-12-23T05:21:11.544Z,997.63
2022-12-23T05:22:11.513Z,997.66
2022-12-23T05:23:11.476Z,997.71
2022-12-23T05:24:11.436Z,997.70
2022-12-23T05:25:11.394Z,997.73
2022-12-23T05:26:11.363Z,997.73
2022-12-23T05:27:11.322Z,997.76
2022-12-23T05:28:11.287Z,997.75
2022-12-23T05:29:11.250Z,997.77
2022-12-23T05:30:11.214Z,997.78
2022-12-23T05:31:11.252Z,997.78
2022-12-23T05:32:11.203Z,997.75
2022-12-23T05:33:11.217Z,997.73
2022-12-23T05:34:11.214Z,997.74
2022-12-23T05:35:11.039Z,997.74
2022-12-23T05:36:11.003Z,997.75
2022-12-23T05:37:10.960Z,997.79
2022-12-23T05:38:10.932Z,997.77
2022-12-23T05:39:10.888Z,997.73
2022-12-23T05:40:10.852Z,997.78
2022-12-23T05:41:10.814Z,997.82
2022-12-23T05:42:10.784Z,997.84
2022-12-23T05:43:10.752Z,997.87
2022-12-23T05:44:10.716Z,997.90
2022-12-23T05:45:10.680Z,997.94
2022-12-23T05:46:10.724Z,997.94
2022-12-23T05:47:10.611Z,998.00
2022-12-23T05:48:10.578Z,998.02
2022-12-23T05:49:10.554Z,998.05
2022-12-23T05:50:10.488Z,998.07
2022-12-23T05:51:10.464Z,998.09
2022-12-23T05:52:10.415Z,998.10
2022-12-23T05:53:10.380Z,998.13
2022-12-23T05:54:10.374Z,998.11
2022-12-23T05:55:10.312Z,998.12
2022-12-23T05:56:10.273Z,998.12
2022-12-23T05:57:10.237Z,998.14
2022-12-23T05:58:10.205Z,998.07
2022-12-23T05:59:10.171Z,998.07
2022-12-23T06:00:10.131Z,998.11
2022-12-23T06:01:10.088Z,998.12
2022-12-23T06:02:10.205Z,998.16
2022-12-23T06:03:10.179Z,998.16
2022-12-23T06:04:10.141Z,998.19
2022-12-23T06:05:09.949Z,998.18
2022-12-23T06:06:09.922Z,998.21
2022-12-23T06:07:09.879Z,998.22
2022-12-23T06:08:09.841Z,998.15
2022-12-23T06:09:10.869Z,998.11
2022-12-23T06:10:09.769Z,998.16
2022-12-23T06:11:09.745Z,998.14
2022-12-23T06:12:09.693Z,998.14
2022-12-23T06:13:09.660Z,998.11
2022-12-23T06:14:09.626Z,998.10
2022-12-23T06:15:09.612Z,998.12
2022-12-23T06:16:09.612Z,998.10
2022-12-23T06:17:09.513Z,998.07
2022-12-23T06:18:09.482Z,998.08
2022-12-23T06:19:09.440Z,998.06
2022-12-23T06:20:13.368Z,998.06
2022-12-23T06:21:09.383Z,998.09
2022-12-23T06:22:09.337Z,998.11
2022-12-23T06:23:09.307Z,998.09
2022-12-23T06:24:09.263Z,998.06
2022-12-23T06:25:09.237Z,998.06
2022-12-23T06:26:09.187Z,998.03
2022-12-23T06:27:09.166Z,998.05
2022-12-23T06:28:09.124Z,998.06
2022-12-23T06:29:09.084Z,998.06
2022-12-23T06:30:09.052Z,998.05
2022-12-23T06:31:09.022Z,998.04
2022-12-23T06:32:09.080Z,998.03
2022-12-23T06:33:08.937Z,997.99
2022-12-23T06:34:08.921Z,998.04
2022-12-23T06:35:08.885Z,998.02
2022-12-23T06:36:08.835Z,998.03
2022-12-23T06:37:08.804Z,998.06
2022-12-23T06:38:12.077Z,998.08
2022-12-23T06:39:08.721Z,998.12
2022-12-23T06:40:08.697Z,998.10
2022-12-23T06:41:08.660Z,998.09
2022-12-23T06:42:08.619Z,998.08
2022-12-23T06:43:08.576Z,998.04
2022-12-23T06:44:08.546Z,998.04
2022-12-23T06:45:08.505Z,998.04
2022-12-23T06:46:08.530Z,997.99
2022-12-23T06:47:08.435Z,997.95
2022-12-23T06:48:08.409Z,997.99
2022-12-23T06:49:13.160Z,998.01
2022-12-23T06:50:08.329Z,997.92
2022-12-23T06:51:08.289Z,997.90
2022-12-23T06:52:08.251Z,997.86
2022-12-23T06:53:08.255Z,997.87
2022-12-23T06:54:08.201Z,997.85
2022-12-23T06:55:08.153Z,997.83
2022-12-23T06:56:08.137Z,997.87
2022-12-23T06:57:08.080Z,997.86
2022-12-23T06:58:08.037Z,997.90
2022-12-23T06:59:07.998Z,997.90
2022-12-23T07:00:07.964Z,997.92
2022-12-23T07:01:10.031Z,997.91
2022-12-23T07:02:08.245Z,997.95
2022-12-23T07:03:07.965Z,997.96
2022-12-23T07:04:07.824Z,998.00
2022-12-23T07:05:07.778Z,997.99
2022-12-23T07:06:07.763Z,997.97
2022-12-23T07:07:07.710Z,998.06
2022-12-23T07:08:07.682Z,998.12
2022-12-23T07:09:07.639Z,998.21
2022-12-23T07:10:07.599Z,998.33
2022-12-23T07:11:07.567Z,998.42
2022-12-23T07:12:07.530Z,998.44
2022-12-23T07:13:07.513Z,998.46
2022-12-23T07:14:07.460Z,998.43
2022-12-23T07:15:07.416Z,998.42
2022-12-23T07:16:07.423Z,998.45
2022-12-23T07:17:07.488Z,998.50
2022-12-23T07:18:07.314Z,998.50
2022-12-23T07:19:07.279Z,998.52
2022-12-23T07:20:07.249Z,998.50
2022-12-23T07:21:15.551Z,998.49
2022-12-23T07:22:07.184Z,998.49
2022-12-23T07:23:07.142Z,998.50
2022-12-23T07:24:07.122Z,998.48
2022-12-23T07:25:07.076Z,998.48
2022-12-23T07:26:07.034Z,998.51
2022-12-23T07:27:06.997Z,998.53
2022-12-23T07:28:06.956Z,998.57
2022-12-23T07:29:06.922Z,998.60
2022-12-23T07:30:06.888Z,998.62
2022-12-23T07:31:06.858Z,998.60
2022-12-23T07:32:06.896Z,998.60
2022-12-23T07:33:06.776Z,998.60
2022-12-23T07:34:06.748Z,998.58
2022-12-23T07:35:06.698Z,998.59
2022-12-23T07:36:06.673Z,998.58
2022-12-23T07:37:06.629Z,998.63
2022-12-23T07:38:06.595Z,998.59
2022-12-23T07:39:06.559Z,998.62
2022-12-23T07:40:08.847Z,998.58
2022-12-23T07:41:06.509Z,998.54
2022-12-23T07:42:42.720Z,998.53
2022-12-23T07:43:06.416Z,998.55
2022-12-23T07:44:06.389Z,998.51
2022-12-23T07:45:06.344Z,998.54
2022-12-23T07:46:06.338Z,998.48
2022-12-23T07:47:06.277Z,998.42
2022-12-23T07:48:06.233Z,998.39
2022-12-23T07:49:06.196Z,998.42
2022-12-23T07:50:06.166Z,998.43
2022-12-23T07:51:06.152Z,998.46
2022-12-23T07:52:06.087Z,998.45
2022-12-23T07:53:06.054Z,998.45
2022-12-23T07:54:06.016Z,998.48
2022-12-23T07:55:05.982Z,998.49
2022-12-23T07:56:05.959Z,998.51
2022-12-23T07:57:05.911Z,998.54
2022-12-23T07:58:05.892Z,998.64
2022-12-23T07:59:05.833Z,998.62
2022-12-23T08:00:05.818Z,998.61
2022-12-23T08:01:05.803Z,998.60
2022-12-23T08:02:05.927Z,998.59
2022-12-23T08:03:05.802Z,998.61
2022-12-23T08:04:05.677Z,998.61
2022-12-23T08:05:05.707Z,998.53
2022-12-23T08:06:05.586Z,998.52
2022-12-23T08:07:05.557Z,998.49
2022-12-23T08:08:05.513Z,998.51
2022-12-23T08:09:05.474Z,998.48
2022-12-23T08:10:05.436Z,998.47
2022-12-23T08:11:05.423Z,998.45
2022-12-23T08:12:05.377Z,998.46
2022-12-23T08:13:05.337Z,998.43
2022-12-23T08:14:05.297Z,998.40
2022-12-23T08:15:05.277Z,998.35
2022-12-23T08:16:05.296Z,998.36
2022-12-23T08:17:05.368Z,998.39
2022-12-23T08:18:05.154Z,998.39
2022-12-23T08:19:05.116Z,998.42
2022-12-23T08:20:05.090Z,998.37
2022-12-23T08:21:05.047Z,998.41
2022-12-23T08:22:05.010Z,998.39
2022-12-23T08:23:04.975Z,998.37
2022-12-23T08:24:04.935Z,998.35
2022-12-23T08:25:04.907Z,998.37
2022-12-23T08:26:04.923Z,998.32
2022-12-23T08:27:04.881Z,998.33
2022-12-23T08:28:04.795Z,998.33
2022-12-23T08:29:04.783Z,998.32
2022-12-23T08:30:04.735Z,998.33
2022-12-23T08:31:04.756Z,998.28
2022-12-23T08:32:04.656Z,998.34
2022-12-23T08:33:04.623Z,998.37
2022-12-23T08:34:04.593Z,998.40
2022-12-23T08:35:04.547Z,998.38
2022-12-23T08:36:04.511Z,998.38
2022-12-23T08:37:04.472Z,998.44
2022-12-23T08:38:04.436Z,998.41
2022-12-23T08:39:04.400Z,998.42
2022-12-23T08:40:04.372Z,998.41
2022-12-23T08:41:04.337Z,998.40
2022-12-23T08:42:04.293Z,998.43
2022-12-23T08:43:04.264Z,998.41
2022-12-23T08:44:04.231Z,998.37
2022-12-23T08:45:04.196Z,998.39
2022-12-23T08:46:04.227Z,998.37
2022-12-23T08:47:04.117Z,998.32
2022-12-23T08:48:04.088Z,998.33
2022-12-23T08:49:04.048Z,998.30
2022-12-23T08:50:04.025Z,998.28
2022-12-23T08:51:03.974Z,998.28
2022-12-23T08:52:03.937Z,998.26
2022-12-23T08:53:03.902Z,998.25
2022-12-23T08:54:03.877Z,998.26
2022-12-23T08:55:03.825Z,998.31
2022-12-23T08:56:03.796Z,998.30
2022-12-23T08:57:03.762Z,998.35
2022-12-23T08:58:03.727Z,998.33
2022-12-23T08:59:03.686Z,998.33
2022-12-23T09:00:03.663Z,998.34
2022-12-23T09:01:03.700Z,998.36
2022-12-23T09:02:03.788Z,998.40
2022-12-23T09:03:03.666Z,998.39
2022-12-23T09:04:03.572Z,998.37
2022-12-23T09:05:03.469Z,998.39
2022-12-23T09:06:03.437Z,998.35
2022-12-23T09:07:03.406Z,998.31
2022-12-23T09:08:03.377Z,998.32
2022-12-23T09:09:03.320Z,998.30
2022-12-23T09:10:03.295Z,998.29
2022-12-23T09:11:03.279Z,998.34
2022-12-23T09:12:03.223Z,998.35
2022-12-23T09:13:03.195Z,998.33
2022-12-23T09:14:03.145Z,998.28
2022-12-23T09:15:03.120Z,998.31
2022-12-23T09:16:03.148Z,998.24
2022-12-23T09:17:03.063Z,998.17
2022-12-23T09:18:03.000Z,998.16
2022-12-23T09:19:02.961Z,998.12
2022-12-23T09:20:02.930Z,998.07
2022-12-23T09:21:02.901Z,998.06
2022-12-23T09:22:02.861Z,998.09
2022-12-23T09:23:02.834Z,998.08
2022-12-23T09:24:02.783Z,998.07
2022-12-23T09:25:05.301Z,998.02
2022-12-23T09:26:02.717Z,998.05
2022-12-23T09:27:02.683Z,998.09
2022-12-23T09:28:02.643Z,998.15
2022-12-23T09:29:02.608Z,998.13
2022-12-23T09:30:02.579Z,998.16
2022-12-23T09:31:02.644Z,998.11
2022-12-23T09:32:02.507Z,998.13
2022-12-23T09:33:02.468Z,998.11
2022-12-23T09:34:02.450Z,998.06
2022-12-23T09:35:02.394Z,998.02
2022-12-23T09:36:02.365Z,997.97
2022-12-23T09:37:02.325Z,997.94
2022-12-23T09:38:02.291Z,997.95
2022-12-23T09:39:02.257Z,997.94
2022-12-23T09:40:02.252Z,997.98
2022-12-23T09:41:02.190Z,997.90
2022-12-23T09:42:02.156Z,997.80
2022-12-23T09:43:02.139Z,997.75
2022-12-23T09:44:02.074Z,997.78
2022-12-23T09:45:02.067Z,997.75
2022-12-23T09:46:02.058Z,997.74
2022-12-23T09:47:02.198Z,997.70
2022-12-23T09:48:01.940Z,997.69
2022-12-23T09:49:01.913Z,997.68
2022-12-23T09:50:01.858Z,997.67
2022-12-23T09:51:01.830Z,997.70
2022-12-23T09:52:01.797Z,997.69
2022-12-23T09:53:01.765Z,997.75
2022-12-23T09:54:01.724Z,997.79
2022-12-23T09:55:01.700Z,997.80
2022-12-23T09:56:01.645Z,997.77
2022-12-23T09:57:01.609Z,997.72
2022-12-23T09:58:01.577Z,997.74
2022-12-23T09:59:01.547Z,997.69
2022-12-23T10:00:01.502Z,997.69
2022-12-23T10:01:01.477Z,997.65
2022-12-23T10:02:01.547Z,997.63
2022-12-23T10:03:01.698Z,997.60
2022-12-23T10:04:01.450Z,997.64
2022-12-23T10:05:01.331Z,997.63
2022-12-23T10:06:01.321Z,997.59
2022-12-23T10:07:03.124Z,997.55
2022-12-23T10:08:01.224Z,997.50
2022-12-23T10:09:01.188Z,997.44
2022-12-23T10:10:01.151Z,997.43
2022-12-23T10:11:01.125Z,997.34
2022-12-23T10:12:01.086Z,997.31
2022-12-23T10:13:01.042Z,997.26
2022-12-23T10:14:01.006Z,997.24
2022-12-23T10:15:00.978Z,997.27
2022-12-23T10:16:00.974Z,997.28
2022-12-23T10:17:00.903Z,997.27
2022-12-23T10:18:00.895Z,997.27
2022-12-23T10:19:00.837Z,997.23
2022-12-23T10:20:00.807Z,997.21
2022-12-23T10:21:00.759Z,997.20
2022-12-23T10:22:00.735Z,997.19
2022-12-23T10:23:00.697Z,997.20
2022-12-23T10:24:00.651Z,997.19
2022-12-23T10:25:00.639Z,997.21
2022-12-23T10:26:00.585Z,997.22
2022-12-23T10:27:00.566Z,997.16
2022-12-23T10:28:00.522Z,997.12
2022-12-23T10:29:00.482Z,997.12
2022-12-23T10:30:09.635Z,997.12
2022-12-23T10:32:00.511Z,997.04
2022-12-23T10:33:00.340Z,997.00
2022-12-23T10:34:00.298Z,997.01
2022-12-23T10:35:00.269Z,997.00
2022-12-23T10:36:00.268Z,997.01
2022-12-23T10:37:00.374Z,996.99
2022-12-23T10:38:00.170Z,996.94
2022-12-23T10:39:00.123Z,996.91
2022-12-23T10:40:00.113Z,996.85
2022-12-23T10:41:06.955Z,996.84
2022-12-23T10:42:00.020Z,996.87
2022-12-23T10:42:59.987Z,996.86
2022-12-23T10:43:59.945Z,996.89
2022-12-23T10:44:59.912Z,996.86
2022-12-23T10:45:59.877Z,996.85
2022-12-23T10:46:59.916Z,996.83
2022-12-23T10:47:59.802Z,996.78
2022-12-23T10:48:59.768Z,996.77
2022-12-23T10:49:59.731Z,996.79
2022-12-23T10:50:59.720Z,996.75
2022-12-23T10:51:59.689Z,996.78
2022-12-23T10:52:59.638Z,996.77
2022-12-23T10:53:59.594Z,996.76
2022-12-23T10:54:59.563Z,996.72
2022-12-23T10:55:59.521Z,996.69
2022-12-23T10:56:59.485Z,996.69
2022-12-23T10:57:59.451Z,996.64
2022-12-23T10:58:59.424Z,996.62
2022-12-23T10:59:59.393Z,996.63
2022-12-23T11:00:59.420Z,996.59
2022-12-23T11:01:59.641Z,996.63
2022-12-23T11:02:59.392Z,996.60
2022-12-23T11:03:59.235Z,996.60
2022-12-23T11:04:59.214Z,996.59
2022-12-23T11:05:59.171Z,996.61
2022-12-23T11:07:26.300Z,996.61
2022-12-23T11:07:59.096Z,996.55
2022-12-23T11:08:59.063Z,996.51
2022-12-23T11:09:59.023Z,996.51
2022-12-23T11:10:58.992Z,996.46
2022-12-23T11:11:58.950Z,996.42
2022-12-23T11:12:58.921Z,996.41
2022-12-23T11:13:58.901Z,996.37
2022-12-23T11:14:58.849Z,996.35
2022-12-23T11:15:58.887Z,996.33
2022-12-23T11:16:58.777Z,996.31
2022-12-23T11:17:58.744Z,996.31
2022-12-23T11:18:58.706Z,996.31
2022-12-23T11:19:58.673Z,996.30
2022-12-23T11:20:58.647Z,996.27
2022-12-23T11:21:58.597Z,996.25
2022-12-23T11:22:58.574Z,996.26
2022-12-23T11:23:58.527Z,996.24
2022-12-23T11:24:58.499Z,996.20
2022-12-23T11:25:58.462Z,996.13
2022-12-23T11:26:58.421Z,996.11
2022-12-23T11:27:58.388Z,996.09
2022-12-23T11:28:58.352Z,996.07
2022-12-23T11:29:58.309Z,996.09
2022-12-23T11:30:58.279Z,996.02
2022-12-23T11:31:58.284Z,995.96
2022-12-23T11:32:58.208Z,995.95
2022-12-23T11:33:58.187Z,995.95
2022-12-23T11:34:58.189Z,995.96
2022-12-23T11:35:58.095Z,995.94
2022-12-23T11:37:03.356Z,995.96
2022-12-23T11:37:58.033Z,995.95
2022-12-23T11:38:57.998Z,995.93
2022-12-23T11:39:57.953Z,995.90
2022-12-23T11:40:57.931Z,995.84
2022-12-23T11:41:57.882Z,995.84
2022-12-23T11:42:57.848Z,995.78
2022-12-23T11:43:57.819Z,995.76
2022-12-23T11:44:57.780Z,995.69
2022-12-23T11:45:57.799Z,995.70
2022-12-23T11:46:57.719Z,995.63
2022-12-23T11:47:57.665Z,995.54
2022-12-23T11:48:57.624Z,995.41
2022-12-23T11:49:57.594Z,995.36
2022-12-23T11:50:57.569Z,995.31
2022-12-23T11:51:57.520Z,995.28
2022-12-23T11:52:57.485Z,995.28
2022-12-23T11:53:57.448Z,995.26
2022-12-23T11:54:57.420Z,995.22
2022-12-23T11:55:57.379Z,995.19
2022-12-23T11:56:57.466Z,995.15
2022-12-23T11:57:57.303Z,995.18
2022-12-23T11:58:57.273Z,995.13
2022-12-23T11:59:57.235Z,995.12
2022-12-23T12:00:57.196Z,995.12
2022-12-23T12:01:57.200Z,995.14
2022-12-23T12:02:57.213Z,995.11
2022-12-23T12:03:57.119Z,995.03
2022-12-23T12:04:57.058Z,995.02
2022-12-23T12:05:57.015Z,994.97
2022-12-23T12:06:57.083Z,994.96
2022-12-23T12:07:56.965Z,994.95
2022-12-23T12:08:56.918Z,994.94
2022-12-23T12:09:56.875Z,994.90
2022-12-23T12:10:56.835Z,994.92
2022-12-23T12:11:56.802Z,994.89
2022-12-23T12:12:56.795Z,994.93
2022-12-23T12:13:56.726Z,994.91
2022-12-23T12:14:56.691Z,994.88
2022-12-23T12:15:56.675Z,994.87
2022-12-23T12:16:56.698Z,994.83
2022-12-23T12:17:56.600Z,994.79
2022-12-23T12:18:56.558Z,994.76
2022-12-23T12:19:56.513Z,994.74
2022-12-23T12:20:56.486Z,994.74
2022-12-23T12:21:56.445Z,994.63
2022-12-23T12:22:56.862Z,994.59
2022-12-23T12:24:17.181Z,994.53
2022-12-23T12:24:56.343Z,994.48
2022-12-23T12:25:56.301Z,994.48
2022-12-23T12:26:56.268Z,994.40
2022-12-23T12:27:56.229Z,994.41
2022-12-23T12:28:56.192Z,994.46